createdAt,value
2018-06-23T00:00:58.439Z,56.80
2018-06-23T00:03:26.555Z,57.40
2018-06-23T00:05:54.653Z,57.20
2018-06-23T00:08:22.747Z,57.40
2018-06-23T00:10:50.856Z,57.50
2018-06-23T00:13:18.962Z,57.50
2018-06-23T00:15:47.069Z,57.70
2018-06-23T00:18:15.170Z,57.70
2018-06-23T00:20:43.267Z,57.50
2018-06-23T00:23:11.409Z,57.70
2018-06-23T00:25:45.016Z,57.90
2018-06-23T00:28:13.171Z,57.80
2018-06-23T00:30:41.326Z,57.70
2018-06-23T00:33:09.501Z,58.10
2018-06-23T00:35:37.635Z,57.70
2018-06-23T00:38:05.757Z,57.50
2018-06-23T00:40:34.479Z,57.40
2018-06-23T00:43:02.587Z,57.80
2018-06-23T00:45:30.692Z,57.80
2018-06-23T00:47:58.783Z,57.80
2018-06-23T00:50:26.888Z,57.70
2018-06-23T00:52:55.010Z,57.70
2018-06-23T00:57:51.039Z,57.90
2018-06-23T01:00:19.116Z,57.70
2018-06-23T01:02:47.228Z,57.60
2018-06-23T01:05:15.323Z,57.70
2018-06-23T01:07:43.448Z,57.80
2018-06-23T01:10:11.565Z,57.60
2018-06-23T01:12:39.680Z,57.80
2018-06-23T01:15:07.798Z,57.90
2018-06-23T01:17:35.893Z,57.80
2018-06-23T01:20:04.034Z,57.60
2018-06-23T01:22:32.179Z,58.00
2018-06-23T01:27:28.435Z,57.80
2018-06-23T01:29:56.531Z,57.90
2018-06-23T01:32:24.629Z,58.00
2018-06-23T01:34:52.734Z,57.60
2018-06-23T01:37:20.851Z,58.00
2018-06-23T01:39:48.982Z,58.60
2018-06-23T01:42:17.085Z,58.00
2018-06-23T01:44:45.175Z,57.90
2018-06-23T01:47:13.247Z,57.90
2018-06-23T01:52:09.307Z,58.30
2018-06-23T01:54:37.403Z,58.30
2018-06-23T01:57:05.642Z,58.30
2018-06-23T01:59:33.800Z,58.20
2018-06-23T02:02:01.853Z,58.10
2018-06-23T02:04:29.939Z,58.30
2018-06-23T02:06:58.056Z,58.30
2018-06-23T02:09:26.155Z,58.40
2018-06-23T02:11:54.277Z,58.60
2018-06-23T02:14:27.910Z,58.60
2018-06-23T02:17:01.383Z,58.40
2018-06-23T02:19:34.891Z,58.80
2018-06-23T02:24:41.856Z,59.00
2018-06-23T02:27:15.501Z,59.10
2018-06-23T02:29:49.023Z,59.00
2018-06-23T02:32:22.483Z,59.20
2018-06-23T02:34:55.984Z,59.20
2018-06-23T02:37:24.096Z,59.40
2018-06-23T02:39:52.184Z,59.30
2018-06-23T02:42:20.312Z,59.40
2018-06-23T02:44:48.421Z,59.60
2018-06-23T02:47:16.547Z,59.70
2018-06-23T02:49:44.654Z,59.90
2018-06-23T02:52:19.151Z,59.90
2018-06-23T02:54:47.247Z,59.90
2018-06-23T02:57:15.351Z,60.10
2018-06-23T02:59:43.459Z,60.20
2018-06-23T03:02:11.579Z,60.80
2018-06-23T03:04:39.682Z,60.70
2018-06-23T03:07:07.780Z,61.20
2018-06-23T03:09:35.904Z,61.30
2018-06-23T03:12:04.020Z,61.50
2018-06-23T03:14:32.147Z,61.70
2018-06-23T03:17:00.271Z,61.70
2018-06-23T03:19:28.373Z,62.00
2018-06-23T03:21:56.456Z,61.40
2018-06-23T03:26:59.220Z,61.70
2018-06-23T03:29:27.320Z,61.90
2018-06-23T03:31:55.407Z,62.00
2018-06-23T03:34:23.492Z,61.80
2018-06-23T03:36:51.607Z,61.90
2018-06-23T03:39:19.823Z,61.90
2018-06-23T03:41:47.947Z,61.90
2018-06-23T03:44:16.068Z,61.90
2018-06-23T03:46:44.172Z,61.80
2018-06-23T03:49:12.292Z,62.00
2018-06-23T03:51:40.395Z,62.20
2018-06-23T03:54:08.485Z,62.30
2018-06-23T03:56:36.598Z,62.40
2018-06-23T03:59:04.704Z,62.70
2018-06-23T04:01:32.819Z,62.70
2018-06-23T04:04:00.916Z,62.70
2018-06-23T04:06:29.099Z,62.80
2018-06-23T04:08:57.191Z,63.00
2018-06-23T04:11:25.322Z,63.20
2018-06-23T04:13:53.407Z,63.00
2018-06-23T04:16:21.491Z,63.20
2018-06-23T04:18:55.033Z,63.40
2018-06-23T04:21:23.140Z,63.50
2018-06-23T04:23:51.426Z,63.60
2018-06-23T04:26:19.535Z,63.70
2018-06-23T04:28:47.651Z,63.80
2018-06-23T04:31:15.755Z,64.10
2018-06-23T04:33:44.028Z,64.20
2018-06-23T04:36:12.148Z,64.70
2018-06-23T04:38:40.230Z,64.20
2018-06-23T04:41:08.300Z,64.20
2018-06-23T04:43:36.388Z,65.30
2018-06-23T04:48:37.020Z,64.60
2018-06-23T04:51:05.114Z,64.60
2018-06-23T04:53:40.540Z,64.70
2018-06-23T04:56:08.624Z,64.70
2018-06-23T05:01:04.647Z,65.00
2018-06-23T05:03:32.742Z,65.00
2018-06-23T05:06:01.013Z,65.20
2018-06-23T05:08:29.120Z,65.20
2018-06-23T05:10:57.201Z,65.20
2018-06-23T05:18:21.067Z,65.70
2018-06-23T05:20:49.169Z,66.50
2018-06-23T05:25:45.152Z,66.30
2018-06-23T05:28:13.234Z,67.00
2018-06-23T05:30:41.329Z,67.00
2018-06-23T05:33:09.445Z,66.40
2018-06-23T05:35:37.589Z,66.70
2018-06-23T05:38:06.354Z,67.10
2018-06-23T05:40:34.477Z,67.00
2018-06-23T05:43:02.591Z,67.10
2018-06-23T05:45:30.919Z,67.30
2018-06-23T05:47:59.023Z,67.20
2018-06-23T05:50:27.203Z,67.60
2018-06-23T05:52:55.284Z,68.00
2018-06-23T05:55:23.367Z,67.90
2018-06-23T05:57:51.480Z,67.80
2018-06-23T06:00:19.558Z,68.10
2018-06-23T06:02:47.679Z,68.00
2018-06-23T06:05:15.771Z,68.10
2018-06-23T06:07:43.868Z,68.00
2018-06-23T06:10:11.963Z,68.30
2018-06-23T06:12:40.081Z,68.00
2018-06-23T06:15:08.166Z,67.90
2018-06-23T06:17:38.348Z,68.10
2018-06-23T06:20:10.533Z,67.90
2018-06-23T06:22:39.866Z,68.50
2018-06-23T06:25:08.475Z,68.30
2018-06-23T06:27:36.629Z,68.10
2018-06-23T06:30:06.970Z,68.00
2018-06-23T06:35:02.951Z,68.00
2018-06-23T06:37:31.076Z,68.00
2018-06-23T06:39:59.180Z,68.50
2018-06-23T06:42:27.308Z,68.60
2018-06-23T06:44:55.415Z,68.90
2018-06-23T06:47:23.503Z,69.70
2018-06-23T06:49:51.608Z,69.90
2018-06-23T06:52:19.679Z,70.60
2018-06-23T06:54:47.781Z,70.10
2018-06-23T06:57:16.013Z,70.30
2018-06-23T06:59:44.004Z,70.50
2018-06-23T07:02:12.104Z,71.00
2018-06-23T07:04:40.192Z,70.90
2018-06-23T07:07:08.318Z,70.70
2018-06-23T07:12:04.353Z,70.70
2018-06-23T07:14:32.455Z,70.40
2018-06-23T07:17:00.539Z,70.80
2018-06-23T07:19:28.676Z,70.50
2018-06-23T07:21:56.784Z,70.50
2018-06-23T07:24:24.884Z,70.20
2018-06-23T07:26:53.030Z,71.10
2018-06-23T07:29:21.095Z,71.80
2018-06-23T07:31:49.179Z,70.60
2018-06-23T07:39:13.039Z,71.20
2018-06-23T07:41:41.159Z,70.80
2018-06-23T07:44:09.638Z,70.60
2018-06-23T07:46:37.782Z,70.70
2018-06-23T07:49:06.042Z,70.20
2018-06-23T07:51:34.199Z,70.70
2018-06-23T07:54:02.348Z,70.60
2018-06-23T07:56:30.459Z,70.80
2018-06-23T08:04:01.070Z,69.50
2018-06-23T08:06:29.168Z,69.70
2018-06-23T08:08:57.272Z,69.30
2018-06-23T08:11:25.349Z,69.30
2018-06-23T08:13:53.437Z,69.70
2018-06-23T08:16:21.567Z,69.10
2018-06-23T08:18:49.659Z,68.30
2018-06-23T08:21:17.772Z,68.50
2018-06-23T08:23:45.944Z,68.10
2018-06-23T08:26:14.061Z,67.40
2018-06-23T08:28:42.235Z,67.10
2018-06-23T08:31:10.319Z,67.00
2018-06-23T08:33:38.504Z,66.60
2018-06-23T08:36:06.716Z,66.70
2018-06-23T08:38:34.824Z,66.40
2018-06-23T08:41:03.012Z,65.50
2018-06-23T08:43:31.109Z,65.10
2018-06-23T08:45:59.199Z,65.30
2018-06-23T08:48:27.305Z,64.40
2018-06-23T08:50:55.451Z,64.90
2018-06-23T08:53:23.581Z,64.10
2018-06-23T08:55:51.793Z,64.30
2018-06-23T08:58:19.920Z,64.10
2018-06-23T09:00:48.012Z,64.00
2018-06-23T09:03:16.117Z,63.60
2018-06-23T09:05:44.264Z,64.50
2018-06-23T09:08:12.379Z,63.00
2018-06-23T09:10:40.515Z,62.90
2018-06-23T09:13:08.632Z,62.50
2018-06-23T09:15:36.733Z,62.00
2018-06-23T09:18:04.847Z,62.50
2018-06-23T09:20:32.973Z,62.30
2018-06-23T09:23:01.080Z,62.40
2018-06-23T09:25:29.252Z,62.00
2018-06-23T09:27:57.300Z,62.00
2018-06-23T09:30:25.412Z,61.80
2018-06-23T09:32:53.543Z,61.80
2018-06-23T09:35:21.639Z,61.60
2018-06-23T09:37:49.732Z,61.20
2018-06-23T09:40:17.829Z,60.90
2018-06-23T09:45:13.900Z,60.80
2018-06-23T09:52:37.803Z,60.70
2018-06-23T09:55:05.920Z,61.10
2018-06-23T09:57:34.000Z,61.20
2018-06-23T10:00:02.099Z,61.40
2018-06-23T10:02:30.211Z,61.10
2018-06-23T10:04:58.295Z,61.20
2018-06-23T10:07:26.400Z,60.70
2018-06-23T10:09:54.487Z,60.80
2018-06-23T10:12:22.711Z,60.30
2018-06-23T10:14:50.780Z,59.90
2018-06-23T10:17:18.875Z,60.00
2018-06-23T10:19:47.007Z,60.00
2018-06-23T10:22:15.099Z,59.50
2018-06-23T10:24:43.227Z,59.10
2018-06-23T10:27:11.308Z,59.00
2018-06-23T10:29:39.425Z,59.20
2018-06-23T10:32:07.572Z,58.90
2018-06-23T10:34:35.672Z,59.00
2018-06-23T10:37:03.823Z,58.20
2018-06-23T10:39:31.945Z,58.40
2018-06-23T10:42:00.171Z,58.60
2018-06-23T10:44:28.232Z,58.70
2018-06-23T10:49:24.355Z,58.60
2018-06-23T10:51:52.456Z,58.70
2018-06-23T10:54:20.555Z,58.70
2018-06-23T10:56:48.656Z,58.10
2018-06-23T10:59:16.750Z,58.10
2018-06-23T11:01:44.839Z,57.80
2018-06-23T11:04:12.923Z,57.80
2018-06-23T11:06:41.044Z,57.80
2018-06-23T11:09:09.706Z,57.50
2018-06-23T11:11:37.975Z,57.10
2018-06-23T11:14:06.203Z,57.20
2018-06-23T11:16:34.335Z,56.80
2018-06-23T11:19:03.101Z,57.00
2018-06-23T11:21:31.204Z,57.00
2018-06-23T11:23:59.303Z,57.00
2018-06-23T11:26:27.388Z,56.70
2018-06-23T11:28:55.481Z,56.60
2018-06-23T11:31:23.607Z,56.30
2018-06-23T11:33:51.723Z,56.20
2018-06-23T11:36:19.801Z,56.20
2018-06-23T11:38:47.925Z,56.10
2018-06-23T11:43:44.177Z,57.00
2018-06-23T11:46:12.295Z,56.90
2018-06-23T11:48:40.413Z,57.00
2018-06-23T11:51:08.515Z,56.80
2018-06-23T11:53:36.611Z,56.80
2018-06-23T11:56:04.908Z,56.80
2018-06-23T11:58:33.008Z,56.40
2018-06-23T12:01:01.117Z,56.50
2018-06-23T12:03:29.196Z,56.40
2018-06-23T12:05:57.292Z,56.60
2018-06-23T12:08:25.392Z,56.60
2018-06-23T12:10:53.494Z,56.90
2018-06-23T12:13:21.595Z,57.40
2018-06-23T12:15:49.708Z,57.90
2018-06-23T12:18:17.812Z,58.40
2018-06-23T12:20:45.936Z,58.80
2018-06-23T12:23:14.026Z,59.20
2018-06-23T12:25:42.116Z,59.40
2018-06-23T12:28:10.214Z,60.20
2018-06-23T12:30:38.296Z,60.20
2018-06-23T12:33:06.399Z,60.40
2018-06-23T12:35:34.508Z,60.50
2018-06-23T12:38:02.624Z,60.20
2018-06-23T12:40:30.732Z,60.60
2018-06-23T12:45:33.492Z,60.30
2018-06-23T12:52:57.355Z,60.20
2018-06-23T12:55:25.485Z,60.40
2018-06-23T12:57:53.606Z,60.50
2018-06-23T13:00:21.727Z,60.80
2018-06-23T13:02:49.851Z,60.70
2018-06-23T13:07:52.396Z,60.60
2018-06-23T13:10:20.475Z,60.80
2018-06-23T13:12:48.584Z,60.50
2018-06-23T13:15:16.719Z,60.60
2018-06-23T13:17:44.811Z,60.40
2018-06-23T13:20:12.890Z,60.50
2018-06-23T13:25:08.927Z,60.60
2018-06-23T13:27:37.048Z,60.60
2018-06-23T13:30:05.324Z,60.50
2018-06-23T13:32:33.760Z,60.60
2018-06-23T13:35:01.883Z,60.30
2018-06-23T13:37:29.977Z,60.10
2018-06-23T13:42:25.968Z,60.80
2018-06-23T13:44:54.076Z,59.90
2018-06-23T13:47:22.211Z,59.90
2018-06-23T13:49:50.320Z,59.90
2018-06-23T13:52:18.425Z,59.90
2018-06-23T13:54:46.511Z,59.80
2018-06-23T13:57:14.633Z,59.60
2018-06-23T13:59:42.740Z,59.50
2018-06-23T14:02:10.892Z,59.40
2018-06-23T14:04:38.997Z,59.20
2018-06-23T14:07:07.184Z,59.30
2018-06-23T14:09:35.290Z,59.10
2018-06-23T14:12:03.399Z,59.00
2018-06-23T14:14:31.511Z,59.00
2018-06-23T14:16:59.640Z,59.00
2018-06-23T14:19:27.775Z,59.00
2018-06-23T14:21:55.876Z,59.00
2018-06-23T14:24:23.983Z,59.00
2018-06-23T14:26:52.172Z,58.80
2018-06-23T14:29:20.306Z,58.70
2018-06-23T14:31:48.616Z,59.20
2018-06-23T14:34:16.527Z,58.80
2018-06-23T14:36:44.631Z,58.80
2018-06-23T14:39:12.737Z,58.80
2018-06-23T14:41:40.867Z,58.70
2018-06-23T14:44:09.295Z,58.90
2018-06-23T14:46:37.414Z,58.90
2018-06-23T14:49:05.536Z,59.00
2018-06-23T14:51:33.638Z,59.10
2018-06-23T14:54:01.749Z,59.40
2018-06-23T14:56:29.839Z,59.20
2018-06-23T14:58:57.939Z,59.20
2018-06-23T15:01:26.031Z,59.20
2018-06-23T15:03:54.140Z,59.20
2018-06-23T15:06:22.230Z,59.10
2018-06-23T15:09:01.791Z,59.30
2018-06-23T15:11:41.536Z,59.60
2018-06-23T15:16:37.504Z,60.00
2018-06-23T15:19:05.636Z,59.90
2018-06-23T15:21:33.763Z,59.80
2018-06-23T15:24:01.876Z,59.90
2018-06-23T15:26:30.291Z,59.80
2018-06-23T15:28:58.409Z,59.90
2018-06-23T15:31:26.546Z,59.90
2018-06-23T15:33:54.880Z,59.80
2018-06-23T15:36:22.960Z,59.80
2018-06-23T15:38:51.075Z,59.60
2018-06-23T15:41:19.167Z,59.70
2018-06-23T15:43:47.271Z,59.80
2018-06-23T15:46:15.391Z,59.80
2018-06-23T15:48:43.543Z,59.70
2018-06-23T15:51:11.667Z,59.70
2018-06-23T15:53:39.764Z,59.80
2018-06-23T15:56:07.860Z,60.00
2018-06-23T15:58:35.959Z,60.10
2018-06-23T16:01:04.107Z,60.10
2018-06-23T16:03:32.271Z,60.10
2018-06-23T16:06:00.420Z,60.10
2018-06-23T16:08:28.614Z,60.40
2018-06-23T16:10:56.732Z,60.50
2018-06-23T16:13:24.870Z,60.60
2018-06-23T16:15:52.975Z,60.60
2018-06-23T16:20:48.972Z,60.70
2018-06-23T16:25:44.939Z,60.80
2018-06-23T16:28:13.040Z,60.70
2018-06-23T16:30:41.181Z,61.20
2018-06-23T16:33:09.284Z,61.20
2018-06-23T16:35:37.384Z,61.40
2018-06-23T16:38:05.620Z,61.60
2018-06-23T16:40:34.232Z,61.80
2018-06-23T16:43:02.354Z,61.60
2018-06-23T16:45:30.480Z,61.40
2018-06-23T16:47:58.577Z,61.50
2018-06-23T16:50:26.699Z,61.40
2018-06-23T16:52:54.801Z,61.40
2018-06-23T16:55:22.924Z,61.40
2018-06-23T16:57:51.058Z,61.50
2018-06-23T17:00:19.135Z,61.70
2018-06-23T17:05:15.211Z,61.80
2018-06-23T17:07:43.319Z,61.60
2018-06-23T17:10:11.455Z,61.50
2018-06-23T17:12:39.518Z,61.60
2018-06-23T17:17:35.504Z,61.80
2018-06-23T17:20:04.190Z,61.80
2018-06-23T17:22:32.278Z,61.60
2018-06-23T17:25:00.378Z,61.70
2018-06-23T17:27:28.780Z,61.70
2018-06-23T17:29:56.864Z,61.90
2018-06-23T17:32:24.968Z,62.20
2018-06-23T17:34:53.592Z,63.00
2018-06-23T17:37:21.713Z,62.40
2018-06-23T17:39:49.832Z,62.50
2018-06-23T17:42:17.924Z,63.60
2018-06-23T17:47:13.980Z,63.10
2018-06-23T17:49:42.104Z,63.20
2018-06-23T17:54:38.126Z,62.90
2018-06-23T17:57:06.308Z,63.00
2018-06-23T17:59:35.353Z,63.00
2018-06-23T18:02:03.486Z,63.00
2018-06-23T18:04:31.643Z,62.90
2018-06-23T18:06:59.732Z,62.90
2018-06-23T18:09:27.839Z,62.90
2018-06-23T18:11:55.939Z,63.00
2018-06-23T18:14:24.127Z,63.20
2018-06-23T18:16:52.220Z,63.40
2018-06-23T18:19:20.348Z,63.40
2018-06-23T18:21:48.481Z,63.50
2018-06-23T18:24:16.592Z,64.20
2018-06-23T18:26:44.695Z,63.40
2018-06-23T18:31:40.835Z,63.30
2018-06-23T18:34:08.956Z,63.40
2018-06-23T18:36:37.060Z,63.50
2018-06-23T18:39:07.832Z,63.40
2018-06-23T18:41:36.069Z,63.50
2018-06-23T18:44:05.175Z,63.50
2018-06-23T18:46:33.267Z,63.60
2018-06-23T18:49:01.344Z,63.50
2018-06-23T18:51:29.480Z,63.90
2018-06-23T18:53:57.676Z,64.00
2018-06-23T18:56:25.823Z,64.10
2018-06-23T19:01:21.807Z,64.10
2018-06-23T19:03:49.996Z,64.10
2018-06-23T19:06:18.131Z,64.10
2018-06-23T19:08:46.260Z,64.20
2018-06-23T19:11:14.347Z,64.00
2018-06-23T19:13:42.436Z,64.30
2018-06-23T19:16:10.544Z,64.40
2018-06-23T19:18:38.658Z,64.50
2018-06-23T19:21:07.024Z,64.60
2018-06-23T19:23:35.119Z,64.80
2018-06-23T19:30:58.983Z,64.90
2018-06-23T19:33:27.084Z,64.10
2018-06-23T19:35:55.215Z,64.90
2018-06-23T19:38:23.312Z,65.00
2018-06-23T19:40:51.447Z,65.10
2018-06-23T19:43:19.527Z,65.30
2018-06-23T19:45:47.632Z,65.40
2018-06-23T19:48:15.722Z,65.40
2018-06-23T19:50:43.824Z,65.50
2018-06-23T19:53:11.963Z,65.40
2018-06-23T19:55:40.072Z,65.30
2018-06-23T19:58:08.170Z,65.40
2018-06-23T20:00:36.296Z,65.40
2018-06-23T20:03:04.591Z,65.40
2018-06-23T20:05:32.701Z,65.60
2018-06-23T20:08:00.779Z,65.80
2018-06-23T20:10:28.892Z,66.00
2018-06-23T20:12:57.128Z,66.10
2018-06-23T20:15:25.223Z,66.20
2018-06-23T20:17:53.319Z,66.10
2018-06-23T20:20:21.630Z,66.20
2018-06-23T20:22:49.708Z,66.20
2018-06-23T20:25:17.919Z,66.20
2018-06-23T20:27:46.020Z,66.30
2018-06-23T20:30:14.132Z,66.20
2018-06-23T20:32:42.228Z,66.40
2018-06-23T20:35:10.331Z,66.40
2018-06-23T20:37:38.448Z,66.60
2018-06-23T20:42:34.424Z,66.80
2018-06-23T20:45:03.240Z,66.80
2018-06-23T20:50:05.936Z,66.90
2018-06-23T20:52:34.033Z,66.90
2018-06-23T20:55:02.453Z,67.20
2018-06-23T20:57:30.632Z,67.10
2018-06-23T20:59:58.840Z,67.10
2018-06-23T21:02:26.932Z,67.20
2018-06-23T21:04:55.024Z,67.20
2018-06-23T21:07:23.193Z,67.30
2018-06-23T21:09:51.232Z,67.30
2018-06-23T21:12:19.353Z,67.30
2018-06-23T21:14:47.472Z,67.30
2018-06-23T21:17:15.593Z,67.30
2018-06-23T21:19:43.684Z,67.30
2018-06-23T21:24:40.051Z,67.30
2018-06-23T21:27:08.541Z,67.20
2018-06-23T21:29:36.638Z,67.40
2018-06-23T21:32:04.951Z,67.60
2018-06-23T21:34:33.196Z,67.60
2018-06-23T21:39:29.279Z,67.60
2018-06-23T21:41:57.388Z,67.60
2018-06-23T21:44:25.499Z,67.70
2018-06-23T21:46:53.652Z,67.50
2018-06-23T21:49:21.750Z,67.50
2018-06-23T21:51:50.651Z,67.50
2018-06-23T21:54:18.751Z,67.70
2018-06-23T21:56:46.856Z,67.80
2018-06-23T21:59:14.974Z,68.80
2018-06-23T22:04:17.889Z,67.80
2018-06-23T22:06:46.060Z,67.70
2018-06-23T22:09:14.197Z,67.90
2018-06-23T22:11:42.291Z,67.80
2018-06-23T22:14:10.385Z,67.60
2018-06-23T22:16:38.560Z,67.40
2018-06-23T22:19:06.680Z,67.40
2018-06-23T22:21:34.795Z,67.60
2018-06-23T22:24:02.968Z,67.70
2018-06-23T22:26:31.102Z,67.00
2018-06-23T22:31:27.172Z,67.60
2018-06-23T22:33:55.266Z,67.60
2018-06-23T22:36:23.371Z,67.50
2018-06-23T22:38:51.467Z,67.40
2018-06-23T22:41:19.544Z,67.40
2018-06-23T22:43:47.634Z,67.50
2018-06-23T22:46:15.740Z,67.40
2018-06-23T22:48:43.856Z,67.40
2018-06-23T22:51:11.977Z,67.50
2018-06-23T22:56:08.046Z,67.40
2018-06-23T22:58:36.132Z,67.00
2018-06-23T23:01:05.211Z,67.00
2018-06-23T23:03:33.312Z,67.00
2018-06-23T23:06:01.403Z,67.10
2018-06-23T23:08:29.499Z,67.20
2018-06-23T23:10:57.589Z,67.10
2018-06-23T23:13:25.703Z,67.00
2018-06-23T23:15:53.911Z,67.10
2018-06-23T23:18:22.021Z,67.20
2018-06-23T23:20:50.109Z,66.90
2018-06-23T23:23:18.287Z,67.10
2018-06-23T23:25:46.411Z,66.90
2018-06-23T23:28:14.517Z,66.80
2018-06-23T23:30:42.640Z,66.90
2018-06-23T23:33:10.719Z,66.80
2018-06-23T23:35:38.818Z,66.80
2018-06-23T23:38:06.912Z,66.80
2018-06-23T23:40:35.023Z,66.60
2018-06-23T23:43:03.116Z,66.30
2018-06-23T23:45:31.199Z,66.40
2018-06-23T23:47:59.336Z,66.40
2018-06-23T23:52:55.315Z,66.20
2018-06-23T23:55:23.427Z,66.40
2018-06-23T23:57:51.556Z,66.20
